Hansa Rendsburg — A8CF4 — position and weather

sailwx.info

Track history (hours):
 
Tides and Currents Weather Stations Pressure Air Temp Water Temp Dewpoint Dewpoint Depression Visibility Wind Speed Wind Dir Waves Ship Positions

Hansa Rendsburg

Last reported at 2016-Apr-26 22:15 UTC. Time now 2016-May-01 00:22 UTC.
Position N 01°12' E 103°49'.

Type: Ship (hazmat cat A). MMSI: 636090636.

Date/timePositionNaut miles runAvg speedWind from/ knotsBaromVisibWave heightAir tempDewpointWater temp
2016-Apr-26 22:15N 01°12' E 103°49'3 0.8
2016-Apr-26 18:12N 01°15' E 103°48'0 0.1
2016-Apr-26 17:24N 01°15' E 103°48'0 0.0
2016-Apr-26 14:15N 01°15' E 103°48'0 0.0
2016-Apr-26 13:30N 01°15' E 103°48'0 0.0
2016-Apr-26 10:33N 01°15' E 103°48'0 0.0
2016-Apr-26 09:21N 01°15' E 103°48'0 0.0
2016-Apr-26 08:33N 01°15' E 103°48'4 4.2
2016-Apr-26 07:33N 01°17' E 103°44'2 1.5
2016-Apr-26 06:31N 01°18' E 103°43'0 0.0
2016-Apr-26 05:28N 01°18' E 103°43'0 0.0
2016-Apr-26 04:28N 01°18' E 103°43'0 0.0
2016-Apr-26 03:04N 01°18' E 103°43'0 0.1
2016-Apr-26 02:28N 01°18' E 103°43'0 0.0
2016-Apr-26 01:22N 01°18' E 103°43'1 1.1
2016-Apr-26 00:33N 01°18' E 103°44'7 6.8
2016-Apr-25 23:33N 01°12' E 103°39'4 4.0
2016-Apr-25 22:33N 01°13' E 103°35'8 5.9
2016-Apr-25 21:10N 01°10' E 103°27'67 8.7
2016-Apr-25 13:33N 01°46' E 102°31'1211.8
2016-Apr-25 12:33N 01°51' E 102°20'6 0.1
2016-Apr-23 20:26N 01°52' E 102°26'1213.9
2016-Apr-23 19:32N 01°47' E 102°37'6713.5
2016-Apr-23 14:33N 01°12' E 103°35'1212.1
2016-Apr-23 13:33N 01°10' E 103°47'1413.8
2016-Apr-23 12:33N 01°15' E 103°59'  
Track history (hours):
 
Tides and Currents Weather Stations Pressure Air Temp Water Temp Dewpoint Dewpoint Depression Visibility Wind Speed Wind Dir Waves Ship Positions

Hansa Rendsburg

Last reported at 2016-Apr-26 22:15 UTC. Time now 2016-May-01 00:22 UTC.
Position N 01°12' E 103°49'.

Type: Ship (hazmat cat A). MMSI: 636090636.

Date/timePositionNaut miles runAvg speedWind from/ knotsBaromVisibWave heightAir tempDewpointWater temp
2016-Apr-26 22:15N 01°12' E 103°49'3 0.8
2016-Apr-26 18:12N 01°15' E 103°48'0 0.1
2016-Apr-26 17:24N 01°15' E 103°48'0 0.0
2016-Apr-26 14:15N 01°15' E 103°48'0 0.0
2016-Apr-26 13:30N 01°15' E 103°48'0 0.0
2016-Apr-26 10:33N 01°15' E 103°48'0 0.0
2016-Apr-26 09:21N 01°15' E 103°48'0 0.0
2016-Apr-26 08:33N 01°15' E 103°48'4 4.2
2016-Apr-26 07:33N 01°17' E 103°44'2 1.5
2016-Apr-26 06:31N 01°18' E 103°43'0 0.0
2016-Apr-26 05:28N 01°18' E 103°43'0 0.0
2016-Apr-26 04:28N 01°18' E 103°43'0 0.0
2016-Apr-26 03:04N 01°18' E 103°43'0 0.1
2016-Apr-26 02:28N 01°18' E 103°43'0 0.0
2016-Apr-26 01:22N 01°18' E 103°43'1 1.1
2016-Apr-26 00:33N 01°18' E 103°44'7 6.8
2016-Apr-25 23:33N 01°12' E 103°39'4 4.0
2016-Apr-25 22:33N 01°13' E 103°35'8 5.9
2016-Apr-25 21:10N 01°10' E 103°27'67 8.7
2016-Apr-25 13:33N 01°46' E 102°31'1211.8
2016-Apr-25 12:33N 01°51' E 102°20'6 0.1
2016-Apr-23 20:26N 01°52' E 102°26'1213.9
2016-Apr-23 19:32N 01°47' E 102°37'6713.5
2016-Apr-23 14:33N 01°12' E 103°35'1212.1
2016-Apr-23 13:33N 01°10' E 103°47'1413.8
2016-Apr-23 12:33N 01°15' E 103°59'  

Dump ship's entire track history